Airfield :
LOGIN :

Register | Disclaimer

   EN    FR    IT 

 










Legend :    VFR   Marginal VFR   IFR   Intensive IFR   Very Intensive IFR
Visi :
Ceiling :
>= 8 km
>= 3000ft
5 to 8 km
1000 to 3000 ft
1500m to 5 km
500 to 1000 ft
800 to 1500m
200 to 500 ft
< 800m
< 200 ft
Symbols :   Thunderstorms  Fog  Heavy snow  Heavy precipitations  Wind > 20 kt
SIGMETs :     Misc.  Thunderstorms  Icing  Turbulence  Mountain Waves  Volcanic Ashes






- Airport Elevation : 1674 ft
- IATA code : BRN


LSZB - Bern Belp

CURRENT METAR :
  • 061550Z 12003KT 5000 1500S BCFG NSC M00/M01 Q1019 BECMG 1000 FG

EXPIRED METARs :
  • 061520Z 14003KT 4800 BR FEW002 01/M00 Q1019 NOSIG
  • 061450Z 17004KT 6000 2000SE FEW002 01/00 Q1019 NOSIG
  • 061420Z 15003KT 5000 2000SW BR SCT002 02/01 Q1019 NOSIG
  • 061350Z 23003KT 1500 BR BKN003 01/00 Q1019 NOSIG
  • 061320Z 15003KT 120V190 1500 BR BKN003 01/00 Q1020 NOSIG

TAF TAF LSZB
Valid from the 06 at 15:00 until the 07 at 00:00 UTC


061425Z 0615/0624 VRB03KT 5000 BR SCT003
BECMG 0616/0619 CAVOK
PROB40 0619/0624 4000 BR NSC
BECMG 0621/0623 8000 BKN110
ATIS : +41 22 417 40 76



MET'MAP, your aeronautical weather chart ! - Copyright ORBIFLY December 2007 - Disclaimer

ORBIFLY MET'MAP TEAM :

Programming & Development : Alexandra Zaïnal
Concept & original design : Baudouin d'Aumeries
Assistance for programming : Marc-Olivier Méhu
Technical & hardware support : Manuel Goepfert

Contact : metmap@orbifly.com




SOURCES & CREDITS :

   NOAA